sensor_id;sensor_type;location;lat;lon;timestamp;pressure;altitude;pressure_sealevel;temperature;humidity
68873;BME280;55907;50.806;12.882;2023-09-18T00:01:26;971.3;;;21.4;55.8
68873;BME280;55907;50.806;12.882;2023-09-18T00:04:27;971.2;;;21.4;55.9
68873;BME280;55907;50.806;12.882;2023-09-18T00:07:29;971.2;;;21.3;56.0
68873;BME280;55907;50.806;12.882;2023-09-18T00:10:30;971.2;;;21.3;56.2
68873;BME280;55907;50.806;12.882;2023-09-18T00:13:31;971.2;;;21.1;57.0
68873;BME280;55907;50.806;12.882;2023-09-18T00:16:33;971.2;;;21.0;57.1
68873;BME280;55907;50.806;12.882;2023-09-18T00:19:34;971.1;;;21.0;57.1
68873;BME280;55907;50.806;12.882;2023-09-18T00:22:36;971.1;;;20.9;57.6
68873;BME280;55907;50.806;12.882;2023-09-18T00:25:37;971.1;;;20.8;57.3
68873;BME280;55907;50.806;12.882;2023-09-18T00:28:39;971.0;;;20.8;57.4
68873;BME280;55907;50.806;12.882;2023-09-18T00:31:40;971.1;;;20.8;57.2
68873;BME280;55907;50.806;12.882;2023-09-18T00:34:41;971.0;;;20.8;57.0
68873;BME280;55907;50.806;12.882;2023-09-18T00:37:43;970.9;;;20.8;57.1
68873;BME280;55907;50.806;12.882;2023-09-18T00:40:44;970.9;;;20.8;57.1
68873;BME280;55907;50.806;12.882;2023-09-18T00:43:46;970.9;;;20.8;57.2
68873;BME280;55907;50.806;12.882;2023-09-18T00:46:48;970.8;;;20.9;56.6
68873;BME280;55907;50.806;12.882;2023-09-18T00:49:49;970.9;;;21.0;56.4
68873;BME280;55907;50.806;12.882;2023-09-18T00:52:50;970.8;;;21.0;56.2
68873;BME280;55907;50.806;12.882;2023-09-18T00:55:53;970.7;;;21.0;56.0
68873;BME280;55907;50.806;12.882;2023-09-18T00:58:53;970.6;;;21.1;55.8
68873;BME280;55907;50.806;12.882;2023-09-18T01:01:54;970.6;;;21.1;55.9
68873;BME280;55907;50.806;12.882;2023-09-18T01:04:56;970.5;;;21.1;55.5
68873;BME280;55907;50.806;12.882;2023-09-18T01:07:57;970.4;;;21.1;56.0
68873;BME280;55907;50.806;12.882;2023-09-18T01:11:04;970.4;;;21.1;56.3
68873;BME280;55907;50.806;12.882;2023-09-18T01:14:10;970.4;;;21.0;56.4
68873;BME280;55907;50.806;12.882;2023-09-18T01:17:02;970.4;;;21.0;56.8
68873;BME280;55907;50.806;12.882;2023-09-18T01:20:03;970.3;;;20.9;57.1
68873;BME280;55907;50.806;12.882;2023-09-18T01:23:04;970.3;;;20.8;57.2
68873;BME280;55907;50.806;12.882;2023-09-18T01:26:06;970.3;;;20.8;57.3
68873;BME280;55907;50.806;12.882;2023-09-18T01:29:07;970.3;;;20.7;57.5
68873;BME280;55907;50.806;12.882;2023-09-18T01:32:09;970.2;;;20.7;57.7
68873;BME280;55907;50.806;12.882;2023-09-18T01:35:10;970.2;;;20.7;57.4
68873;BME280;55907;50.806;12.882;2023-09-18T01:38:11;970.2;;;20.7;57.2
68873;BME280;55907;50.806;12.882;2023-09-18T01:41:13;970.2;;;20.6;57.6
68873;BME280;55907;50.806;12.882;2023-09-18T01:44:14;970.2;;;20.5;57.9
68873;BME280;55907;50.806;12.882;2023-09-18T01:47:17;970.1;;;20.4;58.4
68873;BME280;55907;50.806;12.882;2023-09-18T01:50:17;970.0;;;20.3;59.3
68873;BME280;55907;50.806;12.882;2023-09-18T01:53:18;970.1;;;20.2;59.2
68873;BME280;55907;50.806;12.882;2023-09-18T01:56:20;970.1;;;20.1;59.9
68873;BME280;55907;50.806;12.882;2023-09-18T01:59:22;970.1;;;20.0;59.9
68873;BME280;55907;50.806;12.882;2023-09-18T02:02:23;970.1;;;20.0;58.3
68873;BME280;55907;50.806;12.882;2023-09-18T02:05:24;970.1;;;20.1;58.7
68873;BME280;55907;50.806;12.882;2023-09-18T02:08:25;970.0;;;20.2;58.0
68873;BME280;55907;50.806;12.882;2023-09-18T02:11:27;969.9;;;20.4;57.6
68873;BME280;55907;50.806;12.882;2023-09-18T02:14:28;969.8;;;20.4;57.9
68873;BME280;55907;50.806;12.882;2023-09-18T02:17:30;969.8;;;20.5;57.6
68873;BME280;55907;50.806;12.882;2023-09-18T02:20:39;969.7;;;20.5;57.3
68873;BME280;55907;50.806;12.882;2023-09-18T02:23:33;969.7;;;20.5;57.1
68873;BME280;55907;50.806;12.882;2023-09-18T02:26:34;969.7;;;20.5;57.1
68873;BME280;55907;50.806;12.882;2023-09-18T02:29:35;969.6;;;20.5;57.7
68873;BME280;55907;50.806;12.882;2023-09-18T02:32:37;969.6;;;20.5;57.2
68873;BME280;55907;50.806;12.882;2023-09-18T02:35:38;969.6;;;20.4;57.4
68873;BME280;55907;50.806;12.882;2023-09-18T02:38:40;969.6;;;20.4;57.7
68873;BME280;55907;50.806;12.882;2023-09-18T02:41:41;969.7;;;20.4;57.7
68873;BME280;55907;50.806;12.882;2023-09-18T02:44:42;969.6;;;20.4;57.6
68873;BME280;55907;50.806;12.882;2023-09-18T02:47:44;969.6;;;20.4;57.6
68873;BME280;55907;50.806;12.882;2023-09-18T02:50:45;969.6;;;20.4;57.8
68873;BME280;55907;50.806;12.882;2023-09-18T02:53:47;969.5;;;20.3;58.1
68873;BME280;55907;50.806;12.882;2023-09-18T02:56:48;969.6;;;20.3;58.2
68873;BME280;55907;50.806;12.882;2023-09-18T02:59:50;969.5;;;20.2;59.2
68873;BME280;55907;50.806;12.882;2023-09-18T03:02:51;969.5;;;20.2;59.0
68873;BME280;55907;50.806;12.882;2023-09-18T03:05:52;969.5;;;20.2;59.6
68873;BME280;55907;50.806;12.882;2023-09-18T03:08:54;969.4;;;20.1;61.1
68873;BME280;55907;50.806;12.882;2023-09-18T03:11:55;969.4;;;20.0;60.7
68873;BME280;55907;50.806;12.882;2023-09-18T03:14:57;969.4;;;19.9;61.2
68873;BME280;55907;50.806;12.882;2023-09-18T03:17:59;969.3;;;19.8;60.8
68873;BME280;55907;50.806;12.882;2023-09-18T03:21:00;969.3;;;19.8;60.8
68873;BME280;55907;50.806;12.882;2023-09-18T03:27:03;969.2;;;19.7;62.4
68873;BME280;55907;50.806;12.882;2023-09-18T03:30:05;969.3;;;19.7;62.7
68873;BME280;55907;50.806;12.882;2023-09-18T03:33:05;969.2;;;19.7;62.6
68873;BME280;55907;50.806;12.882;2023-09-18T03:36:07;969.2;;;19.8;62.3
68873;BME280;55907;50.806;12.882;2023-09-18T03:39:08;969.2;;;19.8;62.1
68873;BME280;55907;50.806;12.882;2023-09-18T03:42:10;969.2;;;19.8;62.8
68873;BME280;55907;50.806;12.882;2023-09-18T03:45:11;969.2;;;19.7;62.8
68873;BME280;55907;50.806;12.882;2023-09-18T03:48:13;969.2;;;19.7;63.1
68873;BME280;55907;50.806;12.882;2023-09-18T03:51:14;969.2;;;19.6;63.3
68873;BME280;55907;50.806;12.882;2023-09-18T03:54:15;969.2;;;19.5;64.5
68873;BME280;55907;50.806;12.882;2023-09-18T03:57:17;969.1;;;19.4;64.0
68873;BME280;55907;50.806;12.882;2023-09-18T04:00:18;969.1;;;19.3;64.5
68873;BME280;55907;50.806;12.882;2023-09-18T04:03:20;969.0;;;19.2;66.1
68873;BME280;55907;50.806;12.882;2023-09-18T04:06:21;969.0;;;19.2;65.9
68873;BME280;55907;50.806;12.882;2023-09-18T04:09:23;968.9;;;19.2;64.0
68873;BME280;55907;50.806;12.882;2023-09-18T04:12:25;968.8;;;19.3;65.0
68873;BME280;55907;50.806;12.882;2023-09-18T04:15:26;968.8;;;19.3;64.6
68873;BME280;55907;50.806;12.882;2023-09-18T04:18:27;968.8;;;19.3;65.1
68873;BME280;55907;50.806;12.882;2023-09-18T04:21:29;968.7;;;19.3;65.3
68873;BME280;55907;50.806;12.882;2023-09-18T04:24:30;968.6;;;19.3;65.4
68873;BME280;55907;50.806;12.882;2023-09-18T04:27:31;968.6;;;19.3;66.0
68873;BME280;55907;50.806;12.882;2023-09-18T04:30:33;968.6;;;19.3;65.8
68873;BME280;55907;50.806;12.882;2023-09-18T04:33:34;968.5;;;19.3;66.1
68873;BME280;55907;50.806;12.882;2023-09-18T04:36:35;968.4;;;19.3;64.7
68873;BME280;55907;50.806;12.882;2023-09-18T04:39:37;968.4;;;19.2;65.1
68873;BME280;55907;50.806;12.882;2023-09-18T04:42:39;968.4;;;19.2;66.0
68873;BME280;55907;50.806;12.882;2023-09-18T04:45:40;968.3;;;19.2;66.2
68873;BME280;55907;50.806;12.882;2023-09-18T04:48:41;968.3;;;19.2;64.9
68873;BME280;55907;50.806;12.882;2023-09-18T04:51:43;968.2;;;19.2;66.4
68873;BME280;55907;50.806;12.882;2023-09-18T04:54:45;968.2;;;19.2;66.2
68873;BME280;55907;50.806;12.882;2023-09-18T04:57:45;968.2;;;19.2;66.6
68873;BME280;55907;50.806;12.882;2023-09-18T05:00:47;968.1;;;19.2;66.0
68873;BME280;55907;50.806;12.882;2023-09-18T05:03:48;968.2;;;19.2;66.8
68873;BME280;55907;50.806;12.882;2023-09-18T05:06:50;968.1;;;19.2;67.5
68873;BME280;55907;50.806;12.882;2023-09-18T05:09:51;968.0;;;19.1;67.7
68873;BME280;55907;50.806;12.882;2023-09-18T05:12:52;968.0;;;19.1;67.7
68873;BME280;55907;50.806;12.882;2023-09-18T05:15:54;967.9;;;19.1;67.9
68873;BME280;55907;50.806;12.882;2023-09-18T05:18:55;968.0;;;19.2;67.0
68873;BME280;55907;50.806;12.882;2023-09-18T05:21:57;967.9;;;19.1;67.4
68873;BME280;55907;50.806;12.882;2023-09-18T05:24:58;968.0;;;19.2;66.6
68873;BME280;55907;50.806;12.882;2023-09-18T05:28:00;967.9;;;19.2;66.6
68873;BME280;55907;50.806;12.882;2023-09-18T05:31:01;967.9;;;19.3;66.0
68873;BME280;55907;50.806;12.882;2023-09-18T05:34:03;967.9;;;19.4;66.4
68873;BME280;55907;50.806;12.882;2023-09-18T05:37:04;967.8;;;19.4;66.0
68873;BME280;55907;50.806;12.882;2023-09-18T05:40:08;967.8;;;19.4;65.6
68873;BME280;55907;50.806;12.882;2023-09-18T05:43:07;967.8;;;19.5;65.3
68873;BME280;55907;50.806;12.882;2023-09-18T05:46:08;967.8;;;19.5;64.6
68873;BME280;55907;50.806;12.882;2023-09-18T05:49:10;967.8;;;19.6;65.8
68873;BME280;55907;50.806;12.882;2023-09-18T05:52:11;967.6;;;19.5;65.3
68873;BME280;55907;50.806;12.882;2023-09-18T05:55:14;967.6;;;19.6;64.7
68873;BME280;55907;50.806;12.882;2023-09-18T05:58:14;967.6;;;19.7;64.2
68873;BME280;55907;50.806;12.882;2023-09-18T06:01:15;967.5;;;19.9;64.0
68873;BME280;55907;50.806;12.882;2023-09-18T06:04:17;967.4;;;20.0;61.9
68873;BME280;55907;50.806;12.882;2023-09-18T06:07:18;967.4;;;20.3;60.8
68873;BME280;55907;50.806;12.882;2023-09-18T06:10:20;967.4;;;20.6;59.6
68873;BME280;55907;50.806;12.882;2023-09-18T06:13:21;967.3;;;20.9;58.6
68873;BME280;55907;50.806;12.882;2023-09-18T06:16:22;967.3;;;21.1;58.2
68873;BME280;55907;50.806;12.882;2023-09-18T06:19:24;967.1;;;21.3;57.4
68873;BME280;55907;50.806;12.882;2023-09-18T06:22:25;967.1;;;21.5;57.4
68873;BME280;55907;50.806;12.882;2023-09-18T06:25:27;967.0;;;21.6;56.9
68873;BME280;55907;50.806;12.882;2023-09-18T06:28:28;967.1;;;21.7;56.9
68873;BME280;55907;50.806;12.882;2023-09-18T06:31:30;967.1;;;21.9;56.7
68873;BME280;55907;50.806;12.882;2023-09-18T06:34:31;967.0;;;22.0;56.5
68873;BME280;55907;50.806;12.882;2023-09-18T06:37:32;967.0;;;22.1;56.5
68873;BME280;55907;50.806;12.882;2023-09-18T06:40:34;967.0;;;22.1;56.1
68873;BME280;55907;50.806;12.882;2023-09-18T06:43:35;967.0;;;22.3;56.0
68873;BME280;55907;50.806;12.882;2023-09-18T06:46:37;966.9;;;22.3;55.4
68873;BME280;55907;50.806;12.882;2023-09-18T06:49:38;966.9;;;22.4;55.6
68873;BME280;55907;50.806;12.882;2023-09-18T06:52:39;966.8;;;22.5;55.3
68873;BME280;55907;50.806;12.882;2023-09-18T06:55:41;966.8;;;22.6;55.0
68873;BME280;55907;50.806;12.882;2023-09-18T06:58:42;966.8;;;22.7;54.9
68873;BME280;55907;50.806;12.882;2023-09-18T07:01:44;966.8;;;22.8;54.4
68873;BME280;55907;50.806;12.882;2023-09-18T07:04:45;966.8;;;22.8;54.4
68873;BME280;55907;50.806;12.882;2023-09-18T07:07:46;966.7;;;22.8;54.2
68873;BME280;55907;50.806;12.882;2023-09-18T07:10:49;966.7;;;22.9;54.1
68873;BME280;55907;50.806;12.882;2023-09-18T07:13:49;966.7;;;23.1;54.1
68873;BME280;55907;50.806;12.882;2023-09-18T07:16:51;966.7;;;23.2;53.8
68873;BME280;55907;50.806;12.882;2023-09-18T07:19:52;966.7;;;23.4;53.3
68873;BME280;55907;50.806;12.882;2023-09-18T07:22:53;966.7;;;23.5;52.9
68873;BME280;55907;50.806;12.882;2023-09-18T07:25:55;966.8;;;23.6;52.4
68873;BME280;55907;50.806;12.882;2023-09-18T07:28:56;966.8;;;23.8;52.1
68873;BME280;55907;50.806;12.882;2023-09-18T07:31:58;966.7;;;24.0;51.2
68873;BME280;55907;50.806;12.882;2023-09-18T07:34:59;966.8;;;24.2;51.2
68873;BME280;55907;50.806;12.882;2023-09-18T07:38:00;966.8;;;24.4;50.6
68873;BME280;55907;50.806;12.882;2023-09-18T07:41:02;966.8;;;24.6;50.5
68873;BME280;55907;50.806;12.882;2023-09-18T07:44:03;966.9;;;24.8;49.8
68873;BME280;55907;50.806;12.882;2023-09-18T07:47:05;966.9;;;25.0;48.9
68873;BME280;55907;50.806;12.882;2023-09-18T07:50:06;966.9;;;25.1;48.8
68873;BME280;55907;50.806;12.882;2023-09-18T07:53:07;966.9;;;25.3;49.3
68873;BME280;55907;50.806;12.882;2023-09-18T07:56:09;966.9;;;25.3;48.2
68873;BME280;55907;50.806;12.882;2023-09-18T07:59:10;966.8;;;25.3;48.2
68873;BME280;55907;50.806;12.882;2023-09-18T08:02:11;966.9;;;25.4;47.5
68873;BME280;55907;50.806;12.882;2023-09-18T08:05:13;966.9;;;25.6;47.8
68873;BME280;55907;50.806;12.882;2023-09-18T08:08:14;967.0;;;25.8;47.6
68873;BME280;55907;50.806;12.882;2023-09-18T08:11:16;967.3;;;26.1;47.5
68873;BME280;55907;50.806;12.882;2023-09-18T08:14:17;967.3;;;26.4;47.2
68873;BME280;55907;50.806;12.882;2023-09-18T08:17:18;967.2;;;26.7;46.2
68873;BME280;55907;50.806;12.882;2023-09-18T08:20:20;967.3;;;26.9;44.2
68873;BME280;55907;50.806;12.882;2023-09-18T08:23:21;967.2;;;27.2;44.8
68873;BME280;55907;50.806;12.882;2023-09-18T08:26:24;967.2;;;27.4;44.0
68873;BME280;55907;50.806;12.882;2023-09-18T08:29:24;967.1;;;27.6;44.0
68873;BME280;55907;50.806;12.882;2023-09-18T08:32:25;967.2;;;27.8;45.0
68873;BME280;55907;50.806;12.882;2023-09-18T08:35:27;967.2;;;28.1;45.1
68873;BME280;55907;50.806;12.882;2023-09-18T08:38:28;967.3;;;28.3;44.9
68873;BME280;55907;50.806;12.882;2023-09-18T08:41:31;967.3;;;28.5;44.2
68873;BME280;55907;50.806;12.882;2023-09-18T08:44:31;967.3;;;28.6;42.3
68873;BME280;55907;50.806;12.882;2023-09-18T08:47:32;967.3;;;28.8;43.8
68873;BME280;55907;50.806;12.882;2023-09-18T08:50:34;967.3;;;28.7;40.5
68873;BME280;55907;50.806;12.882;2023-09-18T08:53:36;967.3;;;28.7;39.5
68873;BME280;55907;50.806;12.882;2023-09-18T08:56:36;967.3;;;29.1;40.4
68873;BME280;55907;50.806;12.882;2023-09-18T08:59:39;967.3;;;29.3;38.8
68873;BME280;55907;50.806;12.882;2023-09-18T09:02:39;967.3;;;29.3;40.3
68873;BME280;55907;50.806;12.882;2023-09-18T09:05:40;967.2;;;29.8;38.3
68873;BME280;55907;50.806;12.882;2023-09-18T09:08:42;967.1;;;31.2;38.5
68873;BME280;55907;50.806;12.882;2023-09-18T09:11:48;967.1;;;32.0;34.6
68873;BME280;55907;50.806;12.882;2023-09-18T09:15:01;967.2;;;32.6;34.1
68873;BME280;55907;50.806;12.882;2023-09-18T09:17:46;967.2;;;32.4;34.0
68873;BME280;55907;50.806;12.882;2023-09-18T09:20:53;967.1;;;32.3;32.6
68873;BME280;55907;50.806;12.882;2023-09-18T09:23:50;967.2;;;32.3;32.3
68873;BME280;55907;50.806;12.882;2023-09-18T09:26:57;967.2;;;32.3;32.4
68873;BME280;55907;50.806;12.882;2023-09-18T09:29:57;967.2;;;32.6;31.5
68873;BME280;55907;50.806;12.882;2023-09-18T09:32:54;967.2;;;32.9;31.0
68873;BME280;55907;50.806;12.882;2023-09-18T09:35:54;967.3;;;33.1;30.9
68873;BME280;55907;50.806;12.882;2023-09-18T09:38:56;967.2;;;32.8;31.0
68873;BME280;55907;50.806;12.882;2023-09-18T09:42:01;967.2;;;32.8;31.0
68873;BME280;55907;50.806;12.882;2023-09-18T09:45:02;967.3;;;32.6;31.4
68873;BME280;55907;50.806;12.882;2023-09-18T09:47:59;967.2;;;32.0;31.5
68873;BME280;55907;50.806;12.882;2023-09-18T09:51:01;967.1;;;31.4;33.1
68873;BME280;55907;50.806;12.882;2023-09-18T09:54:02;967.1;;;31.0;34.0
68873;BME280;55907;50.806;12.882;2023-09-18T09:57:04;967.1;;;30.7;34.7
68873;BME280;55907;50.806;12.882;2023-09-18T10:00:05;967.2;;;30.4;35.5
68873;BME280;55907;50.806;12.882;2023-09-18T10:03:07;967.1;;;30.3;36.0
68873;BME280;55907;50.806;12.882;2023-09-18T10:06:09;967.1;;;30.2;35.7
68873;BME280;55907;50.806;12.882;2023-09-18T10:09:10;967.1;;;30.3;35.8
68873;BME280;55907;50.806;12.882;2023-09-18T10:12:11;967.1;;;30.3;35.5
68873;BME280;55907;50.806;12.882;2023-09-18T10:15:12;967.2;;;30.3;35.3
68873;BME280;55907;50.806;12.882;2023-09-18T10:18:19;967.1;;;30.4;35.8
68873;BME280;55907;50.806;12.882;2023-09-18T10:21:22;967.3;;;30.0;36.3
68873;BME280;55907;50.806;12.882;2023-09-18T10:24:20;967.3;;;29.9;36.9
68873;BME280;55907;50.806;12.882;2023-09-18T10:27:18;967.2;;;29.6;37.1
68873;BME280;55907;50.806;12.882;2023-09-18T10:30:19;967.3;;;29.5;37.4
68873;BME280;55907;50.806;12.882;2023-09-18T10:33:20;967.2;;;29.6;37.4
68873;BME280;55907;50.806;12.882;2023-09-18T10:36:22;967.2;;;30.2;36.8
68873;BME280;55907;50.806;12.882;2023-09-18T10:39:25;967.1;;;30.6;35.5
68873;BME280;55907;50.806;12.882;2023-09-18T10:42:24;967.0;;;31.1;35.3
68873;BME280;55907;50.806;12.882;2023-09-18T10:45:25;967.1;;;31.4;34.0
68873;BME280;55907;50.806;12.882;2023-09-18T10:48:27;967.1;;;31.5;33.9
68873;BME280;55907;50.806;12.882;2023-09-18T10:51:29;967.1;;;31.5;33.9
68873;BME280;55907;50.806;12.882;2023-09-18T10:54:31;967.1;;;31.9;34.7
68873;BME280;55907;50.806;12.882;2023-09-18T10:57:33;967.1;;;31.9;34.8
68873;BME280;55907;50.806;12.882;2023-09-18T11:00:32;967.1;;;31.6;35.2
68873;BME280;55907;50.806;12.882;2023-09-18T11:03:34;967.1;;;31.3;35.1
68873;BME280;55907;50.806;12.882;2023-09-18T11:09:42;967.1;;;30.7;36.1
68873;BME280;55907;50.806;12.882;2023-09-18T11:12:45;967.0;;;30.5;36.1
68873;BME280;55907;50.806;12.882;2023-09-18T11:15:39;967.0;;;30.5;36.0
68873;BME280;55907;50.806;12.882;2023-09-18T11:18:40;967.0;;;30.8;36.4
68873;BME280;55907;50.806;12.882;2023-09-18T11:21:41;967.0;;;31.1;36.3
68873;BME280;55907;50.806;12.882;2023-09-18T11:24:43;967.0;;;31.4;34.7
68873;BME280;55907;50.806;12.882;2023-09-18T11:27:52;967.0;;;31.4;34.8
68873;BME280;55907;50.806;12.882;2023-09-18T11:30:49;967.1;;;31.5;34.5
68873;BME280;55907;50.806;12.882;2023-09-18T11:33:47;967.1;;;31.5;34.3
68873;BME280;55907;50.806;12.882;2023-09-18T11:36:49;967.1;;;31.3;34.1
68873;BME280;55907;50.806;12.882;2023-09-18T11:39:50;967.1;;;30.9;35.4
68873;BME280;55907;50.806;12.882;2023-09-18T11:45:53;967.2;;;30.2;36.0
68873;BME280;55907;50.806;12.882;2023-09-18T11:48:54;967.2;;;29.9;36.8
68873;BME280;55907;50.806;12.882;2023-09-18T11:51:58;967.2;;;29.8;37.5
68873;BME280;55907;50.806;12.882;2023-09-18T11:54:58;967.2;;;29.6;38.3
68873;BME280;55907;50.806;12.882;2023-09-18T11:57:58;967.2;;;29.5;38.2
68873;BME280;55907;50.806;12.882;2023-09-18T12:01:10;967.3;;;29.4;38.4
68873;BME280;55907;50.806;12.882;2023-09-18T12:04:01;967.3;;;29.4;38.7
68873;BME280;55907;50.806;12.882;2023-09-18T12:07:03;967.3;;;29.2;38.3
68873;BME280;55907;50.806;12.882;2023-09-18T12:10:04;967.2;;;29.0;38.8
68873;BME280;55907;50.806;12.882;2023-09-18T12:13:05;967.3;;;28.9;39.5
68873;BME280;55907;50.806;12.882;2023-09-18T12:16:06;967.3;;;28.7;39.4
68873;BME280;55907;50.806;12.882;2023-09-18T12:19:07;967.4;;;28.5;40.1
68873;BME280;55907;50.806;12.882;2023-09-18T12:22:09;967.4;;;28.3;40.6
68873;BME280;55907;50.806;12.882;2023-09-18T12:25:11;967.4;;;28.2;41.2
68873;BME280;55907;50.806;12.882;2023-09-18T12:28:13;967.4;;;28.1;41.7
68873;BME280;55907;50.806;12.882;2023-09-18T12:31:14;967.5;;;28.0;42.2
68873;BME280;55907;50.806;12.882;2023-09-18T12:34:14;967.4;;;27.9;42.3
68873;BME280;55907;50.806;12.882;2023-09-18T12:37:16;967.4;;;27.9;42.3
68873;BME280;55907;50.806;12.882;2023-09-18T12:40:22;967.4;;;27.9;42.5
68873;BME280;55907;50.806;12.882;2023-09-18T12:43:20;967.3;;;27.9;42.8
68873;BME280;55907;50.806;12.882;2023-09-18T12:46:20;967.3;;;27.9;43.1
68873;BME280;55907;50.806;12.882;2023-09-18T12:49:23;967.3;;;28.0;42.8
68873;BME280;55907;50.806;12.882;2023-09-18T12:52:23;967.4;;;28.1;42.8
68873;BME280;55907;50.806;12.882;2023-09-18T12:55:25;967.4;;;28.1;43.0
68873;BME280;55907;50.806;12.882;2023-09-18T12:58:25;967.4;;;28.0;43.6
68873;BME280;55907;50.806;12.882;2023-09-18T13:01:27;967.4;;;27.9;43.8
68873;BME280;55907;50.806;12.882;2023-09-18T13:04:28;967.4;;;27.8;43.6
68873;BME280;55907;50.806;12.882;2023-09-18T13:07:30;967.5;;;27.9;43.4
68873;BME280;55907;50.806;12.882;2023-09-18T13:10:41;967.6;;;27.9;43.3
68873;BME280;55907;50.806;12.882;2023-09-18T13:13:32;967.6;;;27.9;43.2
68873;BME280;55907;50.806;12.882;2023-09-18T13:16:34;967.7;;;27.9;43.4
68873;BME280;55907;50.806;12.882;2023-09-18T13:19:35;967.7;;;27.7;44.1
68873;BME280;55907;50.806;12.882;2023-09-18T13:22:37;967.7;;;27.5;44.8
68873;BME280;55907;50.806;12.882;2023-09-18T13:25:39;967.7;;;27.5;44.9
68873;BME280;55907;50.806;12.882;2023-09-18T13:28:39;967.8;;;27.3;45.1
68873;BME280;55907;50.806;12.882;2023-09-18T13:31:41;967.8;;;27.2;44.9
68873;BME280;55907;50.806;12.882;2023-09-18T13:34:42;967.8;;;27.1;45.7
68873;BME280;55907;50.806;12.882;2023-09-18T13:37:44;967.9;;;27.1;45.4
68873;BME280;55907;50.806;12.882;2023-09-18T13:40:46;967.9;;;26.9;45.5
68873;BME280;55907;50.806;12.882;2023-09-18T13:43:46;967.9;;;26.8;45.7
68873;BME280;55907;50.806;12.882;2023-09-18T13:46:48;968.0;;;26.6;46.3
68873;BME280;55907;50.806;12.882;2023-09-18T13:49:49;968.1;;;26.4;46.6
68873;BME280;55907;50.806;12.882;2023-09-18T13:52:50;968.1;;;26.2;46.8
68873;BME280;55907;50.806;12.882;2023-09-18T13:55:52;968.1;;;25.9;47.5
68873;BME280;55907;50.806;12.882;2023-09-18T13:58:54;968.2;;;25.7;48.8
68873;BME280;55907;50.806;12.882;2023-09-18T14:01:55;968.2;;;25.4;49.8
68873;BME280;55907;50.806;12.882;2023-09-18T14:04:56;968.2;;;25.1;51.6
68873;BME280;55907;50.806;12.882;2023-09-18T14:07:57;968.2;;;24.9;51.8
68873;BME280;55907;50.806;12.882;2023-09-18T14:10:59;968.1;;;24.7;52.6
68873;BME280;55907;50.806;12.882;2023-09-18T14:14:00;968.2;;;24.6;53.1
68873;BME280;55907;50.806;12.882;2023-09-18T14:17:02;968.1;;;24.5;53.6
68873;BME280;55907;50.806;12.882;2023-09-18T14:20:04;968.1;;;24.4;54.6
68873;BME280;55907;50.806;12.882;2023-09-18T14:23:04;968.1;;;24.3;55.4
68873;BME280;55907;50.806;12.882;2023-09-18T14:26:06;968.1;;;24.2;55.2
68873;BME280;55907;50.806;12.882;2023-09-18T14:29:07;968.2;;;24.0;55.6
68873;BME280;55907;50.806;12.882;2023-09-18T14:32:10;968.1;;;23.9;56.2
68873;BME280;55907;50.806;12.882;2023-09-18T14:35:10;968.2;;;23.8;56.3
68873;BME280;55907;50.806;12.882;2023-09-18T14:38:11;968.2;;;23.6;57.2
68873;BME280;55907;50.806;12.882;2023-09-18T14:41:13;968.1;;;23.5;58.2
68873;BME280;55907;50.806;12.882;2023-09-18T14:44:14;968.2;;;23.3;59.3
68873;BME280;55907;50.806;12.882;2023-09-18T14:47:16;968.2;;;23.1;60.9
68873;BME280;55907;50.806;12.882;2023-09-18T14:50:17;968.2;;;23.0;61.8
68873;BME280;55907;50.806;12.882;2023-09-18T14:53:18;968.2;;;22.7;63.1
68873;BME280;55907;50.806;12.882;2023-09-18T14:56:20;968.1;;;22.6;64.5
68873;BME280;55907;50.806;12.882;2023-09-18T14:59:21;968.2;;;22.4;63.7
68873;BME280;55907;50.806;12.882;2023-09-18T15:02:23;968.1;;;22.3;65.0
68873;BME280;55907;50.806;12.882;2023-09-18T15:05:24;968.1;;;22.1;66.7
68873;BME280;55907;50.806;12.882;2023-09-18T15:08:26;968.1;;;21.9;68.2
68873;BME280;55907;50.806;12.882;2023-09-18T15:11:27;968.2;;;21.7;68.1
68873;BME280;55907;50.806;12.882;2023-09-18T15:14:29;968.2;;;21.6;71.2
68873;BME280;55907;50.806;12.882;2023-09-18T15:17:30;968.2;;;21.4;72.0
68873;BME280;55907;50.806;12.882;2023-09-18T15:20:31;968.2;;;21.1;74.6
68873;BME280;55907;50.806;12.882;2023-09-18T15:23:33;968.2;;;21.0;74.9
68873;BME280;55907;50.806;12.882;2023-09-18T15:26:34;968.2;;;20.9;77.5
68873;BME280;55907;50.806;12.882;2023-09-18T15:29:36;968.2;;;20.8;77.4
68873;BME280;55907;50.806;12.882;2023-09-18T15:32:46;968.2;;;20.7;79.9
68873;BME280;55907;50.806;12.882;2023-09-18T15:35:39;968.2;;;20.6;80.2
68873;BME280;55907;50.806;12.882;2023-09-18T15:38:40;968.2;;;20.5;80.5
68873;BME280;55907;50.806;12.882;2023-09-18T15:41:41;968.2;;;20.3;80.4
68873;BME280;55907;50.806;12.882;2023-09-18T15:44:43;968.0;;;20.3;81.9
68873;BME280;55907;50.806;12.882;2023-09-18T15:47:44;968.1;;;20.2;80.1
68873;BME280;55907;50.806;12.882;2023-09-18T15:50:46;968.1;;;20.1;81.1
68873;BME280;55907;50.806;12.882;2023-09-18T15:53:47;968.1;;;20.0;82.1
68873;BME280;55907;50.806;12.882;2023-09-18T15:56:49;968.1;;;19.9;82.1
68873;BME280;55907;50.806;12.882;2023-09-18T15:59:50;968.1;;;19.9;84.4
68873;BME280;55907;50.806;12.882;2023-09-18T16:02:51;968.2;;;19.8;85.6
68873;BME280;55907;50.806;12.882;2023-09-18T16:05:53;968.2;;;19.8;86.4
68873;BME280;55907;50.806;12.882;2023-09-18T16:08:54;968.2;;;19.7;87.9
68873;BME280;55907;50.806;12.882;2023-09-18T16:11:56;968.2;;;19.7;88.7
68873;BME280;55907;50.806;12.882;2023-09-18T16:14:57;968.2;;;19.6;89.5
68873;BME280;55907;50.806;12.882;2023-09-18T16:17:59;968.1;;;19.5;89.8
68873;BME280;55907;50.806;12.882;2023-09-18T16:21:01;968.1;;;19.4;91.5
68873;BME280;55907;50.806;12.882;2023-09-18T16:24:02;968.1;;;19.3;91.3
68873;BME280;55907;50.806;12.882;2023-09-18T16:27:04;968.1;;;19.2;90.8
68873;BME280;55907;50.806;12.882;2023-09-18T16:30:05;968.1;;;19.2;91.3
68873;BME280;55907;50.806;12.882;2023-09-18T16:33:06;968.1;;;19.2;92.9
68873;BME280;55907;50.806;12.882;2023-09-18T16:36:08;968.1;;;19.1;91.5
68873;BME280;55907;50.806;12.882;2023-09-18T16:39:09;968.0;;;19.1;90.9
68873;BME280;55907;50.806;12.882;2023-09-18T16:42:11;967.9;;;19.1;91.5
68873;BME280;55907;50.806;12.882;2023-09-18T16:45:12;967.9;;;19.0;91.2
68873;BME280;55907;50.806;12.882;2023-09-18T16:48:13;967.8;;;18.9;91.8
68873;BME280;55907;50.806;12.882;2023-09-18T16:51:15;967.7;;;18.8;92.1
68873;BME280;55907;50.806;12.882;2023-09-18T16:54:18;967.7;;;18.7;93.0
68873;BME280;55907;50.806;12.882;2023-09-18T16:57:18;967.7;;;18.6;93.5
68873;BME280;55907;50.806;12.882;2023-09-18T17:00:19;967.7;;;18.6;93.1
68873;BME280;55907;50.806;12.882;2023-09-18T17:03:21;967.6;;;18.5;89.8